Decoded Metar for KSPA (SPARTANBURG VOR in SC, USA) (IATA:SPA) | Meteo·Mobile Aviation Weather
aviador You're here:

KSPA Decoded Metar

SPARTANBURG VOR in SC, USA
Report Time2019-02-18 10:15:00
UTC Time2019-02-18 10:34:42
Flight Rules lifr LIFR
Wind230° at 05 kt
W.Decomp.*RWY 23: 5.0 kt HW 0.4 kt RCW
W.Rank230° ranks 1
Current wind is below 230° avg. (5.7)
Visibility9999 m
Phenomena:N/A
Clouds:Overcast 002 Hf
Expected CloudBase > 400 ft AGL from Temp-Dew spread
Ceiling200 ft
Temp04°C (ISA -9)
Dew Point03°C (93% RH)
AAT0.7°C
QNH1014 hPa
Density Alt-23 ft
Elevation994 ft
Report Wrong Elevation
Raw Report
METAR KSPA 181015Z AUTO 23005KT 10SM OVC002 04/03 A2994 RMK AO2=

Extra information for KSPA:More info

Metar Taf Metar & Taf Last 4 Metars F.Rules Stats Wind Profile Meteogram Temp Stats Airport Information Weather charts Add Link Nearby VenuesMetar ALERT Operation Metar Decoded Social comments

AIRNAV info for KSPA